Arnegard, North Dakota
Current Conditions -  °F | °C
As of 2:52 AM on Friday 28 Nov 2014 (Local Time) from KISN Reporting Station
Haze Haze  
Wind Chill: -14°   Ceiling: 900
Heat Index: -8°   Visibility: 2mi
Dew Point: -10°   Wind: 8mph
Humidity: 88%   Direction: 60°ENE
Pressure: 29.77"   Gusts: NA
Location:  47.81°N, 103.44°W
Report Text: KISN 280852Z AUTO 06007KT 2SM UP BR OVC009 M08/M10 A2977 RMK AO2 UPB0756E22B32SNB22E32 SLP117 P0004 60004 T10831100 56010
Loading
Personal Weather Stations






























Interactive Weather Map New forecast layout! Learn more

10-Day Weather Forecast

Advertisements
Track Severe Weather on mobile